Terminal Aerodrome Forecast
Issued by NWS

Home | Current Version | Previous Version | Text Only | Print | Product List | Glossary On
Versions: 1 2 3 4 5 6 7 8 9 10 11 12 13 14
233
FTUS46 KSGX 231120
TAFPSP
TAF
KPSP 231120Z 2312/2412 36006KT P6SM SCT200
     FM231900 12007KT P6SM SCT200
     FM240200 34009KT P6SM SKC=

USA.gov is the U.S. government's official web portal to all federal, state and local government web resources and services.